Early Branch, SC

8:55 PM EDT on August 27, 2015 (GMT -0400)
Point South KOA | | Change Station
CLOSE
Current Station
Personal Weather Station
Location: Yemassee, SC
Elevation: 14 ft
Nearby Weather Stations

Elev 14 ft 32.62 °N, 80.88 °W | Updated 24 seconds ago

Mostly Cloudy
Mostly Cloudy
76.8 °F
Feels Like 77 °F
N
0.0
Wind Variable Wind from SSE
Gusts 0.0 mph

Today
High -- | Low -- °F
--% Chance of Precip.
Yesterday
High -- | Low -- °F
Precip. -- in
6:55 AM 7:55 PM
Waxing Gibbous, 96% visible
Pressure 29.99 in
Visibility 10.0 miles
Clouds Scattered Clouds 3000 ft
Mostly Cloudy 7000 ft
Heat Index 77 °F
Dew Point 75 °F
Humidity 95%
Rainfall 0.00 in
Snow Depth Not available.
UV 0.0 out of 12
Pollen 6.50 out of 12
Air Quality Not available.
Flu Activity Not available.
METAR KNBC 272356Z 09005KT 10SM SCT030 BKN070 27/23 A2999 RMK AO2 SLP156 T02670228 10283 20217 53009
Pressure 29.99 in
Visibility 10.0 miles
Clouds Scattered Clouds 3000 ft
Mostly Cloudy 7000 ft
Heat Index 77 °F
Dew Point 75 °F
Humidity 95%
Rainfall 0.00 in
Snow Depth Not available.
UV 0.0 out of 12
Pollen 6.50 out of 12
Air Quality Not available.
Flu Activity Not available.
METAR KNBC 272356Z 09005KT 10SM SCT030 BKN070 27/23 A2999 RMK AO2 SLP156 T02670228 10283 20217 53009
Tropical Storm Erika remains unorganized as it travels through the northeast Caribbean Sea. The storm has already dumped 5-10 inches of rain on the Lesser Antilles, with more rain anticipated for Puerto Rico and Hispaniola. This will be much-needed rain for those islands. Erika is not forecast to reach hurricane strength until Monday when it curves northward along the east coast of Florida. Follow the live blog

10-Day Weather Forecast

×

Almanac

Astronomy

Aug. 27, 2015 Rise Set
Actual Time
Civil Twilight
Nautical Twilight
Astronomical Twilight
Moon
Length of Visible Light
Length of Day
Tomorrow will be .
, % of the Moon is Illuminated

Today's Extremes

State Highs State Lows

Community

WunderPhotos

Upload Photos

1,850,275 photos uploaded!

WunderBlogs® & News

Nearby

Air Quality

  Air Quality AQ Index Pollutant
Not available.

Snow Depth

Station Depth Elevation

Earthquake Activity

City Distance Mag. Time & Date
Minimum magnitude displayed is 2.5.

Coastal Water Temperatures

Place Temperature

Stations

Nearby Weather Stations

Station Location Temp. Windchill Dew Point Humidity Wind Precip. Elev Updated Type